sensor_id;sensor_type;location;lat;lon;timestamp;P1;durP1;ratioP1;P2;durP2;ratioP2
813;SDS011;389;48.710;9.392;2023-12-20T00:00:51;7.03;;;3.90;;
813;SDS011;389;48.710;9.392;2023-12-20T00:03:16;6.37;;;3.77;;
813;SDS011;389;48.710;9.392;2023-12-20T00:05:42;5.53;;;3.73;;
813;SDS011;389;48.710;9.392;2023-12-20T00:08:08;13.97;;;6.00;;
813;SDS011;389;48.710;9.392;2023-12-20T00:10:33;7.40;;;4.30;;
813;SDS011;389;48.710;9.392;2023-12-20T00:12:59;7.63;;;4.13;;
813;SDS011;389;48.710;9.392;2023-12-20T00:15:24;4.57;;;3.10;;
813;SDS011;389;48.710;9.392;2023-12-20T00:17:50;54.27;;;17.60;;
813;SDS011;389;48.710;9.392;2023-12-20T00:20:15;15.60;;;6.77;;
813;SDS011;389;48.710;9.392;2023-12-20T00:22:41;13.67;;;6.90;;
813;SDS011;389;48.710;9.392;2023-12-20T00:25:06;8.70;;;3.87;;
813;SDS011;389;48.710;9.392;2023-12-20T00:27:32;7.60;;;4.40;;
813;SDS011;389;48.710;9.392;2023-12-20T00:29:58;10.20;;;5.50;;
813;SDS011;389;48.710;9.392;2023-12-20T00:32:23;7.00;;;3.63;;
813;SDS011;389;48.710;9.392;2023-12-20T00:34:49;4.50;;;3.30;;
813;SDS011;389;48.710;9.392;2023-12-20T00:37:15;2.97;;;2.20;;
813;SDS011;389;48.710;9.392;2023-12-20T00:39:41;4.73;;;3.00;;
813;SDS011;389;48.710;9.392;2023-12-20T00:42:07;7.20;;;4.37;;
813;SDS011;389;48.710;9.392;2023-12-20T00:44:32;3.63;;;2.97;;
813;SDS011;389;48.710;9.392;2023-12-20T00:46:58;2.53;;;2.00;;
813;SDS011;389;48.710;9.392;2023-12-20T00:49:23;1.77;;;1.67;;
813;SDS011;389;48.710;9.392;2023-12-20T00:51:49;1.67;;;1.50;;
813;SDS011;389;48.710;9.392;2023-12-20T00:54:15;1.47;;;1.37;;
813;SDS011;389;48.710;9.392;2023-12-20T00:56:41;4.50;;;1.67;;
813;SDS011;389;48.710;9.392;2023-12-20T00:59:06;2.10;;;1.57;;
813;SDS011;389;48.710;9.392;2023-12-20T01:01:32;1.50;;;1.40;;
813;SDS011;389;48.710;9.392;2023-12-20T01:03:58;2.97;;;1.57;;
813;SDS011;389;48.710;9.392;2023-12-20T01:06:23;2.10;;;1.50;;
813;SDS011;389;48.710;9.392;2023-12-20T01:08:49;1.63;;;1.10;;
813;SDS011;389;48.710;9.392;2023-12-20T01:11:15;2.57;;;1.20;;
813;SDS011;389;48.710;9.392;2023-12-20T01:13:40;1.10;;;1.10;;
813;SDS011;389;48.710;9.392;2023-12-20T01:16:08;0.83;;;0.83;;
813;SDS011;389;48.710;9.392;2023-12-20T01:18:35;1.57;;;1.17;;
813;SDS011;389;48.710;9.392;2023-12-20T01:21:01;1.13;;;0.93;;
813;SDS011;389;48.710;9.392;2023-12-20T01:23:28;1.60;;;1.43;;
813;SDS011;389;48.710;9.392;2023-12-20T01:25:53;1.73;;;1.23;;
813;SDS011;389;48.710;9.392;2023-12-20T01:28:19;1.53;;;1.43;;
813;SDS011;389;48.710;9.392;2023-12-20T01:30:45;1.53;;;1.43;;
813;SDS011;389;48.710;9.392;2023-12-20T01:33:10;2.80;;;1.50;;
813;SDS011;389;48.710;9.392;2023-12-20T01:35:36;1.83;;;1.73;;
813;SDS011;389;48.710;9.392;2023-12-20T01:38:02;1.23;;;1.13;;
813;SDS011;389;48.710;9.392;2023-12-20T01:40:27;1.50;;;1.40;;
813;SDS011;389;48.710;9.392;2023-12-20T01:43:00;2.70;;;1.20;;
813;SDS011;389;48.710;9.392;2023-12-20T01:45:26;1.47;;;1.37;;
813;SDS011;389;48.710;9.392;2023-12-20T01:47:52;1.37;;;1.27;;
813;SDS011;389;48.710;9.392;2023-12-20T01:50:18;5.27;;;1.50;;
813;SDS011;389;48.710;9.392;2023-12-20T01:52:44;1.90;;;1.27;;
813;SDS011;389;48.710;9.392;2023-12-20T01:55:10;2.30;;;1.20;;
813;SDS011;389;48.710;9.392;2023-12-20T01:57:40;1.97;;;1.33;;
813;SDS011;389;48.710;9.392;2023-12-20T02:00:06;1.87;;;1.57;;
813;SDS011;389;48.710;9.392;2023-12-20T02:02:34;1.23;;;1.13;;
813;SDS011;389;48.710;9.392;2023-12-20T02:05:04;2.37;;;1.33;;
813;SDS011;389;48.710;9.392;2023-12-20T02:07:30;1.50;;;1.20;;
813;SDS011;389;48.710;9.392;2023-12-20T02:09:56;1.50;;;1.40;;
813;SDS011;389;48.710;9.392;2023-12-20T02:12:22;1.90;;;1.53;;
813;SDS011;389;48.710;9.392;2023-12-20T02:14:48;1.23;;;1.10;;
813;SDS011;389;48.710;9.392;2023-12-20T02:17:14;1.43;;;1.20;;
813;SDS011;389;48.710;9.392;2023-12-20T02:19:40;1.80;;;1.23;;
813;SDS011;389;48.710;9.392;2023-12-20T02:22:09;1.20;;;1.10;;
813;SDS011;389;48.710;9.392;2023-12-20T02:24:36;1.40;;;1.30;;
813;SDS011;389;48.710;9.392;2023-12-20T02:27:01;1.50;;;1.40;;
813;SDS011;389;48.710;9.392;2023-12-20T02:29:27;1.40;;;1.13;;
813;SDS011;389;48.710;9.392;2023-12-20T02:31:53;1.10;;;1.10;;
813;SDS011;389;48.710;9.392;2023-12-20T02:34:18;1.43;;;1.33;;
813;SDS011;389;48.710;9.392;2023-12-20T02:36:44;1.30;;;1.20;;
813;SDS011;389;48.710;9.392;2023-12-20T02:39:10;1.20;;;1.07;;
813;SDS011;389;48.710;9.392;2023-12-20T02:41:35;1.10;;;1.00;;
813;SDS011;389;48.710;9.392;2023-12-20T02:44:01;1.10;;;1.10;;
813;SDS011;389;48.710;9.392;2023-12-20T02:46:27;1.00;;;1.00;;
813;SDS011;389;48.710;9.392;2023-12-20T02:48:52;1.00;;;1.00;;
813;SDS011;389;48.710;9.392;2023-12-20T02:51:18;1.27;;;1.17;;
813;SDS011;389;48.710;9.392;2023-12-20T02:53:43;1.13;;;1.00;;
813;SDS011;389;48.710;9.392;2023-12-20T02:56:09;1.13;;;1.03;;
813;SDS011;389;48.710;9.392;2023-12-20T02:58:35;1.37;;;1.27;;
813;SDS011;389;48.710;9.392;2023-12-20T03:01:00;1.50;;;1.37;;
813;SDS011;389;48.710;9.392;2023-12-20T03:03:26;1.13;;;1.00;;
813;SDS011;389;48.710;9.392;2023-12-20T03:05:51;1.93;;;1.33;;
813;SDS011;389;48.710;9.392;2023-12-20T03:08:17;0.90;;;0.87;;
813;SDS011;389;48.710;9.392;2023-12-20T03:10:43;1.93;;;1.37;;
813;SDS011;389;48.710;9.392;2023-12-20T03:13:08;3.17;;;1.60;;
813;SDS011;389;48.710;9.392;2023-12-20T03:15:34;1.57;;;1.00;;
813;SDS011;389;48.710;9.392;2023-12-20T03:18:00;1.37;;;1.03;;
813;SDS011;389;48.710;9.392;2023-12-20T03:20:25;1.30;;;1.20;;
813;SDS011;389;48.710;9.392;2023-12-20T03:22:51;1.20;;;1.10;;
813;SDS011;389;48.710;9.392;2023-12-20T03:25:16;2.40;;;0.90;;
813;SDS011;389;48.710;9.392;2023-12-20T03:27:42;1.13;;;1.13;;
813;SDS011;389;48.710;9.392;2023-12-20T03:30:08;1.63;;;1.40;;
813;SDS011;389;48.710;9.392;2023-12-20T03:32:34;0.90;;;0.90;;
813;SDS011;389;48.710;9.392;2023-12-20T03:34:59;1.37;;;1.27;;
813;SDS011;389;48.710;9.392;2023-12-20T03:37:25;1.90;;;1.60;;
813;SDS011;389;48.710;9.392;2023-12-20T03:39:50;2.40;;;1.70;;
813;SDS011;389;48.710;9.392;2023-12-20T03:42:16;1.80;;;1.40;;
813;SDS011;389;48.710;9.392;2023-12-20T03:44:41;1.80;;;1.60;;
813;SDS011;389;48.710;9.392;2023-12-20T03:47:07;1.80;;;1.57;;
813;SDS011;389;48.710;9.392;2023-12-20T03:49:33;2.10;;;1.60;;
813;SDS011;389;48.710;9.392;2023-12-20T03:51:58;1.50;;;1.40;;
813;SDS011;389;48.710;9.392;2023-12-20T03:54:24;1.50;;;1.40;;
813;SDS011;389;48.710;9.392;2023-12-20T03:56:50;1.70;;;1.60;;
813;SDS011;389;48.710;9.392;2023-12-20T03:59:15;1.63;;;1.50;;
813;SDS011;389;48.710;9.392;2023-12-20T04:01:43;1.43;;;1.37;;
813;SDS011;389;48.710;9.392;2023-12-20T04:04:09;1.10;;;1.00;;
813;SDS011;389;48.710;9.392;2023-12-20T04:06:35;1.00;;;0.73;;
813;SDS011;389;48.710;9.392;2023-12-20T04:09:01;0.87;;;0.87;;
813;SDS011;389;48.710;9.392;2023-12-20T04:11:26;0.70;;;0.70;;
813;SDS011;389;48.710;9.392;2023-12-20T04:13:52;0.90;;;0.73;;
813;SDS011;389;48.710;9.392;2023-12-20T04:16:18;0.80;;;0.80;;
813;SDS011;389;48.710;9.392;2023-12-20T04:18:43;0.90;;;0.90;;
813;SDS011;389;48.710;9.392;2023-12-20T04:21:09;1.03;;;0.70;;
813;SDS011;389;48.710;9.392;2023-12-20T04:23:34;0.80;;;0.80;;
813;SDS011;389;48.710;9.392;2023-12-20T04:26:00;1.00;;;0.87;;
813;SDS011;389;48.710;9.392;2023-12-20T04:28:25;0.87;;;0.87;;
813;SDS011;389;48.710;9.392;2023-12-20T04:30:51;1.23;;;1.00;;
813;SDS011;389;48.710;9.392;2023-12-20T04:33:16;0.80;;;0.80;;
813;SDS011;389;48.710;9.392;2023-12-20T04:35:42;1.20;;;0.70;;
813;SDS011;389;48.710;9.392;2023-12-20T04:38:08;0.60;;;0.60;;
813;SDS011;389;48.710;9.392;2023-12-20T04:40:34;0.90;;;0.60;;
813;SDS011;389;48.710;9.392;2023-12-20T04:42:59;1.10;;;0.90;;
813;SDS011;389;48.710;9.392;2023-12-20T04:45:25;0.80;;;0.80;;
813;SDS011;389;48.710;9.392;2023-12-20T04:47:51;0.60;;;0.60;;
813;SDS011;389;48.710;9.392;2023-12-20T04:50:16;1.10;;;1.00;;
813;SDS011;389;48.710;9.392;2023-12-20T04:52:42;1.00;;;1.00;;
813;SDS011;389;48.710;9.392;2023-12-20T04:55:08;3.43;;;1.50;;
813;SDS011;389;48.710;9.392;2023-12-20T04:57:34;4.43;;;2.57;;
813;SDS011;389;48.710;9.392;2023-12-20T05:00:00;3.10;;;2.03;;
813;SDS011;389;48.710;9.392;2023-12-20T05:02:25;1.40;;;1.30;;
813;SDS011;389;48.710;9.392;2023-12-20T05:04:51;1.40;;;1.10;;
813;SDS011;389;48.710;9.392;2023-12-20T05:07:16;1.33;;;1.20;;
813;SDS011;389;48.710;9.392;2023-12-20T05:09:42;1.40;;;1.20;;
813;SDS011;389;48.710;9.392;2023-12-20T05:12:07;1.10;;;1.00;;
813;SDS011;389;48.710;9.392;2023-12-20T05:14:33;1.27;;;1.00;;
813;SDS011;389;48.710;9.392;2023-12-20T05:16:59;1.10;;;0.70;;
813;SDS011;389;48.710;9.392;2023-12-20T05:19:24;0.97;;;0.70;;
813;SDS011;389;48.710;9.392;2023-12-20T05:21:50;0.70;;;0.70;;
813;SDS011;389;48.710;9.392;2023-12-20T05:24:15;1.77;;;0.80;;
813;SDS011;389;48.710;9.392;2023-12-20T05:26:41;0.70;;;0.67;;
813;SDS011;389;48.710;9.392;2023-12-20T05:29:06;1.03;;;1.03;;
813;SDS011;389;48.710;9.392;2023-12-20T05:31:32;1.53;;;0.97;;
813;SDS011;389;48.710;9.392;2023-12-20T05:33:57;0.60;;;0.60;;
813;SDS011;389;48.710;9.392;2023-12-20T05:36:23;0.80;;;0.80;;
813;SDS011;389;48.710;9.392;2023-12-20T05:38:48;0.93;;;0.93;;
813;SDS011;389;48.710;9.392;2023-12-20T05:41:14;1.70;;;1.40;;
813;SDS011;389;48.710;9.392;2023-12-20T05:43:40;1.40;;;1.30;;
813;SDS011;389;48.710;9.392;2023-12-20T05:46:05;6.60;;;3.90;;
813;SDS011;389;48.710;9.392;2023-12-20T05:48:31;11.57;;;6.70;;
813;SDS011;389;48.710;9.392;2023-12-20T05:50:56;7.03;;;3.30;;
813;SDS011;389;48.710;9.392;2023-12-20T05:53:22;4.20;;;2.73;;
813;SDS011;389;48.710;9.392;2023-12-20T05:55:48;10.07;;;6.47;;
813;SDS011;389;48.710;9.392;2023-12-20T05:58:13;6.27;;;3.90;;
813;SDS011;389;48.710;9.392;2023-12-20T06:00:39;5.90;;;2.70;;
813;SDS011;389;48.710;9.392;2023-12-20T06:03:05;6.43;;;2.67;;
813;SDS011;389;48.710;9.392;2023-12-20T06:05:31;5.10;;;2.90;;
813;SDS011;389;48.710;9.392;2023-12-20T06:07:56;3.80;;;2.23;;
813;SDS011;389;48.710;9.392;2023-12-20T06:10:26;3.13;;;1.70;;
813;SDS011;389;48.710;9.392;2023-12-20T06:12:52;5.07;;;1.57;;
813;SDS011;389;48.710;9.392;2023-12-20T06:15:17;1.03;;;1.03;;
813;SDS011;389;48.710;9.392;2023-12-20T06:17:43;2.00;;;1.57;;
813;SDS011;389;48.710;9.392;2023-12-20T06:20:09;1.70;;;1.60;;
813;SDS011;389;48.710;9.392;2023-12-20T06:22:36;1.80;;;1.70;;
813;SDS011;389;48.710;9.392;2023-12-20T06:25:02;2.73;;;1.70;;
813;SDS011;389;48.710;9.392;2023-12-20T06:27:28;3.03;;;1.50;;
813;SDS011;389;48.710;9.392;2023-12-20T06:29:54;1.80;;;1.70;;
813;SDS011;389;48.710;9.392;2023-12-20T06:32:19;1.43;;;1.33;;
813;SDS011;389;48.710;9.392;2023-12-20T06:34:45;1.30;;;1.20;;
813;SDS011;389;48.710;9.392;2023-12-20T06:37:11;1.27;;;1.00;;
813;SDS011;389;48.710;9.392;2023-12-20T06:39:37;1.53;;;1.30;;
813;SDS011;389;48.710;9.392;2023-12-20T06:42:02;1.80;;;1.33;;
813;SDS011;389;48.710;9.392;2023-12-20T06:44:28;1.63;;;1.33;;
813;SDS011;389;48.710;9.392;2023-12-20T06:46:54;1.30;;;1.20;;
813;SDS011;389;48.710;9.392;2023-12-20T06:49:19;4.00;;;2.17;;
813;SDS011;389;48.710;9.392;2023-12-20T06:51:45;1.90;;;1.80;;
813;SDS011;389;48.710;9.392;2023-12-20T06:54:10;1.63;;;1.53;;
813;SDS011;389;48.710;9.392;2023-12-20T06:56:36;2.40;;;2.03;;
813;SDS011;389;48.710;9.392;2023-12-20T06:59:01;1.93;;;1.70;;
813;SDS011;389;48.710;9.392;2023-12-20T07:01:27;4.07;;;3.03;;
813;SDS011;389;48.710;9.392;2023-12-20T07:03:52;2.30;;;2.10;;
813;SDS011;389;48.710;9.392;2023-12-20T07:06:18;12.47;;;6.07;;
813;SDS011;389;48.710;9.392;2023-12-20T07:08:44;18.40;;;8.80;;
813;SDS011;389;48.710;9.392;2023-12-20T07:11:09;8.10;;;5.60;;
813;SDS011;389;48.710;9.392;2023-12-20T07:13:35;6.83;;;4.03;;
813;SDS011;389;48.710;9.392;2023-12-20T07:16:01;9.50;;;5.10;;
813;SDS011;389;48.710;9.392;2023-12-20T07:18:26;11.47;;;5.90;;
813;SDS011;389;48.710;9.392;2023-12-20T07:20:52;14.03;;;5.10;;
813;SDS011;389;48.710;9.392;2023-12-20T07:23:19;6.90;;;4.03;;
813;SDS011;389;48.710;9.392;2023-12-20T07:25:45;4.00;;;3.13;;
813;SDS011;389;48.710;9.392;2023-12-20T07:28:10;3.80;;;3.07;;
813;SDS011;389;48.710;9.392;2023-12-20T07:30:36;3.80;;;2.70;;
813;SDS011;389;48.710;9.392;2023-12-20T07:33:01;3.40;;;2.60;;
813;SDS011;389;48.710;9.392;2023-12-20T07:35:33;3.93;;;2.90;;
813;SDS011;389;48.710;9.392;2023-12-20T07:37:58;5.20;;;4.00;;
813;SDS011;389;48.710;9.392;2023-12-20T07:40:24;6.53;;;3.80;;
813;SDS011;389;48.710;9.392;2023-12-20T07:42:49;6.23;;;3.60;;
813;SDS011;389;48.710;9.392;2023-12-20T07:45:15;4.40;;;3.33;;
813;SDS011;389;48.710;9.392;2023-12-20T07:47:40;5.00;;;2.70;;
813;SDS011;389;48.710;9.392;2023-12-20T07:50:06;2.73;;;1.97;;
813;SDS011;389;48.710;9.392;2023-12-20T07:52:31;3.20;;;1.50;;
813;SDS011;389;48.710;9.392;2023-12-20T07:54:57;1.80;;;1.70;;
813;SDS011;389;48.710;9.392;2023-12-20T07:57:23;1.93;;;1.57;;
813;SDS011;389;48.710;9.392;2023-12-20T07:59:48;1.90;;;1.80;;
813;SDS011;389;48.710;9.392;2023-12-20T08:02:14;4.90;;;1.67;;
813;SDS011;389;48.710;9.392;2023-12-20T08:04:40;1.40;;;1.30;;
813;SDS011;389;48.710;9.392;2023-12-20T08:07:06;1.80;;;1.70;;
813;SDS011;389;48.710;9.392;2023-12-20T08:09:32;2.33;;;2.13;;
813;SDS011;389;48.710;9.392;2023-12-20T08:11:58;2.33;;;2.00;;
813;SDS011;389;48.710;9.392;2023-12-20T08:14:25;2.63;;;1.87;;
813;SDS011;389;48.710;9.392;2023-12-20T08:16:50;2.87;;;2.30;;
813;SDS011;389;48.710;9.392;2023-12-20T08:19:16;3.70;;;2.37;;
813;SDS011;389;48.710;9.392;2023-12-20T08:21:42;2.90;;;2.30;;
813;SDS011;389;48.710;9.392;2023-12-20T08:24:07;4.40;;;2.63;;
813;SDS011;389;48.710;9.392;2023-12-20T08:26:33;3.07;;;2.77;;
813;SDS011;389;48.710;9.392;2023-12-20T08:28:59;2.40;;;1.90;;
813;SDS011;389;48.710;9.392;2023-12-20T08:31:24;2.40;;;2.20;;
813;SDS011;389;48.710;9.392;2023-12-20T08:33:51;2.23;;;2.03;;
813;SDS011;389;48.710;9.392;2023-12-20T08:36:18;2.43;;;2.23;;
813;SDS011;389;48.710;9.392;2023-12-20T08:38:46;3.23;;;2.40;;
813;SDS011;389;48.710;9.392;2023-12-20T08:41:12;3.23;;;2.73;;
813;SDS011;389;48.710;9.392;2023-12-20T08:43:37;2.43;;;2.23;;
813;SDS011;389;48.710;9.392;2023-12-20T08:46:05;3.10;;;2.30;;
813;SDS011;389;48.710;9.392;2023-12-20T08:48:31;2.80;;;2.27;;
813;SDS011;389;48.710;9.392;2023-12-20T08:50:56;3.63;;;2.30;;
813;SDS011;389;48.710;9.392;2023-12-20T08:53:22;4.50;;;2.37;;
813;SDS011;389;48.710;9.392;2023-12-20T08:55:47;2.43;;;2.23;;
813;SDS011;389;48.710;9.392;2023-12-20T08:58:13;2.53;;;2.33;;
813;SDS011;389;48.710;9.392;2023-12-20T09:00:39;3.00;;;2.30;;
813;SDS011;389;48.710;9.392;2023-12-20T09:03:04;3.50;;;2.77;;
813;SDS011;389;48.710;9.392;2023-12-20T09:05:30;2.73;;;2.47;;
813;SDS011;389;48.710;9.392;2023-12-20T09:07:56;2.83;;;2.53;;
813;SDS011;389;48.710;9.392;2023-12-20T09:10:21;5.57;;;2.30;;
813;SDS011;389;48.710;9.392;2023-12-20T09:12:48;2.47;;;2.27;;
813;SDS011;389;48.710;9.392;2023-12-20T09:15:14;3.80;;;3.00;;
813;SDS011;389;48.710;9.392;2023-12-20T09:17:40;3.10;;;2.20;;
813;SDS011;389;48.710;9.392;2023-12-20T09:20:06;4.97;;;2.57;;
813;SDS011;389;48.710;9.392;2023-12-20T09:22:33;5.43;;;2.40;;
813;SDS011;389;48.710;9.392;2023-12-20T09:24:59;3.73;;;2.60;;
813;SDS011;389;48.710;9.392;2023-12-20T09:27:25;4.57;;;2.40;;
813;SDS011;389;48.710;9.392;2023-12-20T09:29:51;2.70;;;2.50;;
813;SDS011;389;48.710;9.392;2023-12-20T09:32:18;3.00;;;2.40;;
813;SDS011;389;48.710;9.392;2023-12-20T09:34:45;2.90;;;2.70;;
813;SDS011;389;48.710;9.392;2023-12-20T09:37:11;3.63;;;2.60;;
813;SDS011;389;48.710;9.392;2023-12-20T09:39:36;5.63;;;2.70;;
813;SDS011;389;48.710;9.392;2023-12-20T09:42:03;2.60;;;2.40;;
813;SDS011;389;48.710;9.392;2023-12-20T09:44:29;3.10;;;2.80;;
813;SDS011;389;48.710;9.392;2023-12-20T09:46:56;3.70;;;3.10;;
813;SDS011;389;48.710;9.392;2023-12-20T09:49:22;4.13;;;2.60;;
813;SDS011;389;48.710;9.392;2023-12-20T09:51:48;7.53;;;2.50;;
813;SDS011;389;48.710;9.392;2023-12-20T09:54:19;3.23;;;2.40;;
813;SDS011;389;48.710;9.392;2023-12-20T09:56:46;7.10;;;2.30;;
813;SDS011;389;48.710;9.392;2023-12-20T09:59:12;3.90;;;2.53;;
813;SDS011;389;48.710;9.392;2023-12-20T10:01:39;6.70;;;2.00;;
813;SDS011;389;48.710;9.392;2023-12-20T10:04:06;3.63;;;2.47;;
813;SDS011;389;48.710;9.392;2023-12-20T10:06:34;7.07;;;2.07;;
813;SDS011;389;48.710;9.392;2023-12-20T10:09:01;2.50;;;2.13;;
813;SDS011;389;48.710;9.392;2023-12-20T10:11:26;4.83;;;2.07;;
813;SDS011;389;48.710;9.392;2023-12-20T10:13:58;3.83;;;2.90;;
813;SDS011;389;48.710;9.392;2023-12-20T10:16:26;7.43;;;2.30;;
813;SDS011;389;48.710;9.392;2023-12-20T10:18:52;4.53;;;2.87;;
813;SDS011;389;48.710;9.392;2023-12-20T10:21:19;5.20;;;2.47;;
813;SDS011;389;48.710;9.392;2023-12-20T10:23:45;4.23;;;2.00;;
813;SDS011;389;48.710;9.392;2023-12-20T10:26:12;3.27;;;2.33;;
813;SDS011;389;48.710;9.392;2023-12-20T10:28:52;2.27;;;1.53;;
813;SDS011;389;48.710;9.392;2023-12-20T10:31:29;3.23;;;1.60;;
813;SDS011;389;48.710;9.392;2023-12-20T10:33:59;4.47;;;2.30;;
813;SDS011;389;48.710;9.392;2023-12-20T10:36:26;3.33;;;1.37;;
813;SDS011;389;48.710;9.392;2023-12-20T10:38:53;2.90;;;1.57;;
813;SDS011;389;48.710;9.392;2023-12-20T10:41:21;7.77;;;3.10;;
813;SDS011;389;48.710;9.392;2023-12-20T10:43:52;2.07;;;1.63;;
813;SDS011;389;48.710;9.392;2023-12-20T10:46:21;3.00;;;1.67;;
813;SDS011;389;48.710;9.392;2023-12-20T10:48:47;3.23;;;1.87;;
813;SDS011;389;48.710;9.392;2023-12-20T10:51:17;1.47;;;1.27;;
813;SDS011;389;48.710;9.392;2023-12-20T10:53:43;4.53;;;1.40;;
813;SDS011;389;48.710;9.392;2023-12-20T10:56:11;4.33;;;1.20;;
813;SDS011;389;48.710;9.392;2023-12-20T10:58:41;2.40;;;1.40;;
813;SDS011;389;48.710;9.392;2023-12-20T11:01:10;3.80;;;1.30;;
813;SDS011;389;48.710;9.392;2023-12-20T11:03:46;2.40;;;1.67;;
813;SDS011;389;48.710;9.392;2023-12-20T11:14:41;3.30;;;2.07;;
813;SDS011;389;48.710;9.392;2023-12-20T11:17:13;1.80;;;1.47;;
813;SDS011;389;48.710;9.392;2023-12-20T11:22:22;2.37;;;1.30;;
813;SDS011;389;48.710;9.392;2023-12-20T11:24:51;4.77;;;1.47;;
813;SDS011;389;48.710;9.392;2023-12-20T11:27:21;2.20;;;1.80;;
813;SDS011;389;48.710;9.392;2023-12-20T11:29:54;4.00;;;1.60;;
813;SDS011;389;48.710;9.392;2023-12-20T11:34:50;2.83;;;1.63;;
813;SDS011;389;48.710;9.392;2023-12-20T11:37:16;3.20;;;1.63;;
813;SDS011;389;48.710;9.392;2023-12-20T11:39:44;1.40;;;1.30;;
813;SDS011;389;48.710;9.392;2023-12-20T11:42:10;2.80;;;2.20;;
813;SDS011;389;48.710;9.392;2023-12-20T11:44:36;5.57;;;2.73;;
813;SDS011;389;48.710;9.392;2023-12-20T11:47:02;2.33;;;1.73;;
813;SDS011;389;48.710;9.392;2023-12-20T11:49:28;3.10;;;1.73;;
813;SDS011;389;48.710;9.392;2023-12-20T11:51:55;3.50;;;1.90;;
813;SDS011;389;48.710;9.392;2023-12-20T11:54:21;5.23;;;1.87;;
813;SDS011;389;48.710;9.392;2023-12-20T11:56:47;3.23;;;2.20;;
813;SDS011;389;48.710;9.392;2023-12-20T11:59:13;2.97;;;2.20;;
813;SDS011;389;48.710;9.392;2023-12-20T12:01:39;4.20;;;1.97;;
813;SDS011;389;48.710;9.392;2023-12-20T12:04:05;2.77;;;1.80;;
813;SDS011;389;48.710;9.392;2023-12-20T12:06:31;2.57;;;1.60;;
813;SDS011;389;48.710;9.392;2023-12-20T12:08:57;2.07;;;1.73;;
813;SDS011;389;48.710;9.392;2023-12-20T12:11:23;4.33;;;2.23;;
813;SDS011;389;48.710;9.392;2023-12-20T12:13:48;4.97;;;3.10;;
813;SDS011;389;48.710;9.392;2023-12-20T12:16:17;3.93;;;2.40;;
813;SDS011;389;48.710;9.392;2023-12-20T12:18:46;5.10;;;3.20;;
813;SDS011;389;48.710;9.392;2023-12-20T12:21:20;3.17;;;2.53;;
813;SDS011;389;48.710;9.392;2023-12-20T12:23:46;3.40;;;1.67;;
813;SDS011;389;48.710;9.392;2023-12-20T12:26:12;3.20;;;2.57;;
813;SDS011;389;48.710;9.392;2023-12-20T12:28:39;4.17;;;2.50;;
813;SDS011;389;48.710;9.392;2023-12-20T12:31:06;2.13;;;1.80;;
813;SDS011;389;48.710;9.392;2023-12-20T12:33:32;2.00;;;1.80;;
813;SDS011;389;48.710;9.392;2023-12-20T12:35:58;5.33;;;2.10;;
813;SDS011;389;48.710;9.392;2023-12-20T12:38:30;2.90;;;2.23;;
813;SDS011;389;48.710;9.392;2023-12-20T12:40:56;7.77;;;5.60;;
813;SDS011;389;48.710;9.392;2023-12-20T12:43:22;5.23;;;4.40;;
813;SDS011;389;48.710;9.392;2023-12-20T12:45:48;22.93;;;17.27;;
813;SDS011;389;48.710;9.392;2023-12-20T12:48:14;9.00;;;2.77;;
813;SDS011;389;48.710;9.392;2023-12-20T12:50:40;3.53;;;2.43;;
813;SDS011;389;48.710;9.392;2023-12-20T12:53:06;19.07;;;9.47;;
813;SDS011;389;48.710;9.392;2023-12-20T12:55:31;15.00;;;9.87;;
813;SDS011;389;48.710;9.392;2023-12-20T12:57:57;6.70;;;4.80;;
813;SDS011;389;48.710;9.392;2023-12-20T13:00:23;9.20;;;5.10;;
813;SDS011;389;48.710;9.392;2023-12-20T13:02:49;10.73;;;5.17;;
813;SDS011;389;48.710;9.392;2023-12-20T13:05:15;4.93;;;3.77;;
813;SDS011;389;48.710;9.392;2023-12-20T13:07:40;10.67;;;7.90;;
813;SDS011;389;48.710;9.392;2023-12-20T13:10:10;16.83;;;11.93;;
813;SDS011;389;48.710;9.392;2023-12-20T13:12:35;11.90;;;8.23;;
813;SDS011;389;48.710;9.392;2023-12-20T13:15:01;9.87;;;7.67;;
813;SDS011;389;48.710;9.392;2023-12-20T13:17:28;9.40;;;6.47;;
813;SDS011;389;48.710;9.392;2023-12-20T13:19:54;4.73;;;3.80;;
813;SDS011;389;48.710;9.392;2023-12-20T13:22:20;4.90;;;3.87;;
813;SDS011;389;48.710;9.392;2023-12-20T13:24:46;7.00;;;3.30;;
813;SDS011;389;48.710;9.392;2023-12-20T13:27:11;2.10;;;1.87;;
813;SDS011;389;48.710;9.392;2023-12-20T13:29:37;5.40;;;3.60;;
813;SDS011;389;48.710;9.392;2023-12-20T13:32:02;10.23;;;6.37;;
813;SDS011;389;48.710;9.392;2023-12-20T13:34:28;26.57;;;14.57;;
813;SDS011;389;48.710;9.392;2023-12-20T13:36:54;5.70;;;2.50;;
813;SDS011;389;48.710;9.392;2023-12-20T13:39:20;9.80;;;6.70;;
813;SDS011;389;48.710;9.392;2023-12-20T13:41:46;4.23;;;3.53;;
813;SDS011;389;48.710;9.392;2023-12-20T13:44:12;4.30;;;2.50;;
813;SDS011;389;48.710;9.392;2023-12-20T13:46:38;2.20;;;1.73;;
813;SDS011;389;48.710;9.392;2023-12-20T13:49:03;11.57;;;2.13;;
813;SDS011;389;48.710;9.392;2023-12-20T13:51:30;9.47;;;7.93;;
813;SDS011;389;48.710;9.392;2023-12-20T13:53:55;4.60;;;2.60;;
813;SDS011;389;48.710;9.392;2023-12-20T13:56:21;3.90;;;1.87;;
813;SDS011;389;48.710;9.392;2023-12-20T13:58:48;3.13;;;2.13;;
813;SDS011;389;48.710;9.392;2023-12-20T14:01:13;5.10;;;2.37;;
813;SDS011;389;48.710;9.392;2023-12-20T14:03:39;2.67;;;1.73;;
813;SDS011;389;48.710;9.392;2023-12-20T14:06:06;6.30;;;5.80;;
813;SDS011;389;48.710;9.392;2023-12-20T14:08:32;4.77;;;3.20;;
813;SDS011;389;48.710;9.392;2023-12-20T14:10:57;3.23;;;2.10;;
813;SDS011;389;48.710;9.392;2023-12-20T14:13:23;4.77;;;2.73;;
813;SDS011;389;48.710;9.392;2023-12-20T14:15:48;8.13;;;4.17;;
813;SDS011;389;48.710;9.392;2023-12-20T14:18:14;3.70;;;2.20;;
813;SDS011;389;48.710;9.392;2023-12-20T14:20:40;3.40;;;2.00;;
813;SDS011;389;48.710;9.392;2023-12-20T14:23:07;5.43;;;2.40;;
813;SDS011;389;48.710;9.392;2023-12-20T14:25:34;3.50;;;1.93;;
813;SDS011;389;48.710;9.392;2023-12-20T14:28:02;2.47;;;2.10;;
813;SDS011;389;48.710;9.392;2023-12-20T14:30:28;4.33;;;2.87;;
813;SDS011;389;48.710;9.392;2023-12-20T14:32:54;3.67;;;1.67;;
813;SDS011;389;48.710;9.392;2023-12-20T14:35:20;1.80;;;1.70;;
813;SDS011;389;48.710;9.392;2023-12-20T14:37:45;3.90;;;2.30;;
813;SDS011;389;48.710;9.392;2023-12-20T14:40:11;2.60;;;1.30;;
813;SDS011;389;48.710;9.392;2023-12-20T14:42:41;1.90;;;1.20;;
813;SDS011;389;48.710;9.392;2023-12-20T14:45:09;5.57;;;1.70;;
813;SDS011;389;48.710;9.392;2023-12-20T14:50:20;2.30;;;2.10;;
813;SDS011;389;48.710;9.392;2023-12-20T14:52:46;1.47;;;1.37;;
813;SDS011;389;48.710;9.392;2023-12-20T14:55:12;4.97;;;1.57;;
813;SDS011;389;48.710;9.392;2023-12-20T14:57:38;3.20;;;1.90;;
813;SDS011;389;48.710;9.392;2023-12-20T15:00:04;6.90;;;1.53;;
813;SDS011;389;48.710;9.392;2023-12-20T15:02:30;2.83;;;1.97;;
813;SDS011;389;48.710;9.392;2023-12-20T15:04:56;3.10;;;2.20;;
813;SDS011;389;48.710;9.392;2023-12-20T15:07:22;2.00;;;1.77;;
813;SDS011;389;48.710;9.392;2023-12-20T15:09:47;5.63;;;1.77;;
813;SDS011;389;48.710;9.392;2023-12-20T15:12:14;7.27;;;1.87;;
813;SDS011;389;48.710;9.392;2023-12-20T15:14:39;1.70;;;1.60;;
813;SDS011;389;48.710;9.392;2023-12-20T15:17:06;3.57;;;2.13;;
813;SDS011;389;48.710;9.392;2023-12-20T15:19:32;4.97;;;1.90;;
813;SDS011;389;48.710;9.392;2023-12-20T15:21:57;2.80;;;1.87;;
813;SDS011;389;48.710;9.392;2023-12-20T15:24:24;2.13;;;1.50;;
813;SDS011;389;48.710;9.392;2023-12-20T15:26:53;5.13;;;2.80;;
813;SDS011;389;48.710;9.392;2023-12-20T15:29:19;5.37;;;2.07;;
813;SDS011;389;48.710;9.392;2023-12-20T15:31:45;3.60;;;1.70;;
813;SDS011;389;48.710;9.392;2023-12-20T15:34:12;2.10;;;1.87;;
813;SDS011;389;48.710;9.392;2023-12-20T15:36:38;30.70;;;19.20;;
813;SDS011;389;48.710;9.392;2023-12-20T15:39:05;6.33;;;4.73;;
813;SDS011;389;48.710;9.392;2023-12-20T15:41:33;11.13;;;6.03;;
813;SDS011;389;48.710;9.392;2023-12-20T15:43:59;4.97;;;2.47;;
813;SDS011;389;48.710;9.392;2023-12-20T15:46:24;4.73;;;3.13;;
813;SDS011;389;48.710;9.392;2023-12-20T15:48:50;47.70;;;26.40;;
813;SDS011;389;48.710;9.392;2023-12-20T15:51:17;82.53;;;45.97;;
813;SDS011;389;48.710;9.392;2023-12-20T15:53:45;60.23;;;38.90;;